createdAt,value
2019-05-13T00:00:34.086Z,103692.72
2019-05-13T00:03:03.606Z,103694.66
2019-05-13T00:05:33.955Z,103691.47
2019-05-13T00:08:03.517Z,103694.81
2019-05-13T00:10:34.720Z,103700.28
2019-05-13T00:13:04.525Z,103703.81
2019-05-13T00:15:34.043Z,103707.07
2019-05-13T00:18:03.860Z,103698.99
2019-05-13T00:20:33.741Z,103703.94
2019-05-13T00:23:04.025Z,103701.58
2019-05-13T00:25:34.021Z,103701.02
2019-05-13T00:28:04.176Z,103702.58
2019-05-13T00:30:34.104Z,103696.63
2019-05-13T00:33:03.849Z,103699.69
2019-05-13T00:35:33.945Z,103704.27
2019-05-13T00:38:03.865Z,103698.64
2019-05-13T00:40:33.681Z,103700.81
2019-05-13T00:43:03.896Z,103698.84
2019-05-13T00:45:34.024Z,103699.62
2019-05-13T00:48:04.685Z,103691.94
2019-05-13T00:50:33.897Z,103689.47
2019-05-13T00:53:04.264Z,103697.90
2019-05-13T00:55:34.469Z,103688.47
2019-05-13T00:58:04.361Z,103682.93
2019-05-13T01:00:33.887Z,103695.19
2019-05-13T01:03:04.116Z,103695.95
2019-05-13T01:05:34.059Z,103688.34
2019-05-13T01:08:04.199Z,103686.17
2019-05-13T01:10:34.649Z,103688.28
2019-05-13T01:13:04.626Z,103695.81
2019-05-13T01:15:34.492Z,103688.92
2019-05-13T01:18:04.061Z,103689.47
2019-05-13T01:20:34.595Z,103691.14
2019-05-13T01:23:03.935Z,103696.92
2019-05-13T01:25:33.853Z,103693.81
2019-05-13T01:28:04.502Z,103691.28
2019-05-13T01:30:34.643Z,103699.23
2019-05-13T01:33:04.421Z,103689.50
2019-05-13T01:35:34.351Z,103689.50
2019-05-13T01:38:04.549Z,103692.34
2019-05-13T01:40:34.801Z,103691.88
2019-05-13T01:43:03.891Z,103697.75
2019-05-13T01:45:33.750Z,103695.98
2019-05-13T01:48:06.957Z,103692.97
2019-05-13T01:50:33.709Z,103690.87
2019-05-13T01:53:04.162Z,103699.34
2019-05-13T01:55:33.903Z,103699.87
2019-05-13T01:58:04.238Z,103703.08
2019-05-13T02:00:35.429Z,103700.11
2019-05-13T02:03:04.324Z,103703.52
2019-05-13T02:05:33.966Z,103701.64
2019-05-13T02:08:04.483Z,103702.39
2019-05-13T02:10:50.971Z,103693.32
2019-05-13T02:13:19.564Z,103689.80
2019-05-13T02:15:48.248Z,103692.89
2019-05-13T02:18:16.834Z,103699.69
2019-05-13T02:20:45.489Z,103697.83
2019-05-13T02:23:14.562Z,103702.02
2019-05-13T02:25:43.652Z,103697.59
2019-05-13T02:28:13.887Z,103702.13
2019-05-13T02:30:45.511Z,103704.91
2019-05-13T02:33:13.510Z,103708.20
2019-05-13T02:35:43.564Z,103708.17
2019-05-13T02:38:22.745Z,103703.95
2019-05-13T02:40:43.464Z,103712.73
2019-05-13T02:43:13.557Z,103719.41
2019-05-13T02:45:43.486Z,103717.18
2019-05-13T02:48:12.873Z,103717.91
2019-05-13T02:50:44.136Z,103713.78
2019-05-13T02:53:13.665Z,103717.50
2019-05-13T02:55:43.667Z,103717.73
2019-05-13T02:58:12.862Z,103733.12
2019-05-13T03:00:44.130Z,103739.68
2019-05-13T03:03:12.929Z,103739.92
2019-05-13T03:05:42.911Z,103739.09
2019-05-13T03:08:12.664Z,103737.11
2019-05-13T03:10:43.410Z,103731.12
2019-05-13T03:13:13.008Z,103732.63
2019-05-13T03:15:43.113Z,103731.75
2019-05-13T03:18:13.373Z,103732.92
2019-05-13T03:20:43.233Z,103739.48
2019-05-13T03:23:13.717Z,103739.85
2019-05-13T03:25:43.151Z,103744.84
2019-05-13T03:28:13.478Z,103750.61
2019-05-13T03:30:45.703Z,103744.13
2019-05-13T03:33:18.566Z,103742.66
2019-05-13T03:35:45.578Z,103755.26
2019-05-13T03:38:13.697Z,103754.02
2019-05-13T03:40:43.000Z,103754.73
2019-05-13T03:43:13.462Z,103759.40
2019-05-13T03:45:43.610Z,103761.77
2019-05-13T03:48:13.400Z,103760.79
2019-05-13T03:50:43.399Z,103755.23
2019-05-13T03:53:13.239Z,103760.81
2019-05-13T03:55:43.579Z,103764.32
2019-05-13T03:58:13.466Z,103768.44
2019-05-13T04:00:43.398Z,103768.63
2019-05-13T04:03:13.732Z,103769.86
2019-05-13T04:05:43.803Z,103767.98
2019-05-13T04:08:13.392Z,103774.70
2019-05-13T04:10:42.889Z,103775.99
2019-05-13T04:13:12.540Z,103783.14
2019-05-13T04:15:42.798Z,103783.35
2019-05-13T04:18:12.531Z,103785.28
2019-05-13T04:20:42.338Z,103778.77
2019-05-13T04:23:12.831Z,103775.64
2019-05-13T04:25:44.666Z,103780.17
2019-05-13T04:28:13.603Z,103777.54
2019-05-13T04:30:43.739Z,103774.08
2019-05-13T04:33:14.126Z,103774.43
2019-05-13T04:35:43.152Z,103780.23
2019-05-13T04:38:13.177Z,103784.41
2019-05-13T04:40:42.562Z,103780.06
2019-05-13T04:43:12.952Z,103781.90
2019-05-13T04:45:43.033Z,103784.46
2019-05-13T04:48:12.756Z,103785.72
2019-05-13T04:50:43.227Z,103789.27
2019-05-13T04:53:13.651Z,103791.23
2019-05-13T04:55:43.991Z,103788.16
2019-05-13T04:58:13.265Z,103789.09
2019-05-13T05:01:08.146Z,103787.14
2019-05-13T05:06:22.946Z,103792.34
2019-05-13T05:09:12.880Z,103791.58
2019-05-13T05:11:44.409Z,103793.23
2019-05-13T05:14:41.638Z,103797.55
2019-05-13T05:17:15.148Z,103798.94
2019-05-13T05:20:08.230Z,103803.76
2019-05-13T05:23:02.122Z,103805.80
2019-05-13T05:25:52.903Z,103810.56
2019-05-13T05:28:41.498Z,103809.73
2019-05-13T05:31:32.371Z,103812.73
2019-05-13T05:34:06.761Z,103808.57
2019-05-13T05:37:07.000Z,103813.69
2019-05-13T05:39:37.808Z,103803.87
2019-05-13T05:42:07.506Z,103805.41
2019-05-13T05:44:37.392Z,103808.04
2019-05-13T05:47:06.080Z,103798.26
2019-05-13T05:49:36.228Z,103802.12
2019-05-13T05:52:06.965Z,103809.58
2019-05-13T05:54:38.685Z,103800.81
2019-05-13T05:57:08.891Z,103797.86
2019-05-13T05:59:38.749Z,103799.17
2019-05-13T06:02:08.188Z,103804.64
2019-05-13T06:04:36.919Z,103803.68
2019-05-13T06:07:06.198Z,103804.10
2019-05-13T06:09:34.798Z,103810.49
2019-05-13T06:12:03.379Z,103804.69
2019-05-13T06:14:32.843Z,103806.02
2019-05-13T06:17:02.683Z,103808.55
2019-05-13T06:19:32.222Z,103810.27
2019-05-13T06:22:02.318Z,103807.16
2019-05-13T06:24:31.524Z,103806.88
2019-05-13T06:27:01.664Z,103805.12
2019-05-13T06:29:31.719Z,103802.80
2019-05-13T06:32:15.063Z,103805.16
2019-05-13T06:34:32.844Z,103806.04
2019-05-13T06:37:01.973Z,103806.19
2019-05-13T06:39:31.684Z,103807.38
2019-05-13T06:42:02.640Z,103805.27
2019-05-13T06:44:31.751Z,103810.56
2019-05-13T06:47:02.494Z,103805.94
2019-05-13T06:49:32.242Z,103808.20
2019-05-13T06:52:01.653Z,103799.00
2019-05-13T06:54:33.031Z,103805.61
2019-05-13T06:57:04.294Z,103804.68
2019-05-13T06:59:31.745Z,103797.94
2019-05-13T07:02:02.088Z,103797.09
2019-05-13T07:04:32.780Z,103797.09
2019-05-13T07:07:12.244Z,103804.68
2019-05-13T07:09:32.289Z,103803.45
2019-05-13T07:12:02.848Z,103805.29
2019-05-13T07:14:32.433Z,103799.87
2019-05-13T07:17:02.132Z,103806.37
2019-05-13T07:19:32.264Z,103806.25
2019-05-13T07:22:02.720Z,103798.41
2019-05-13T07:24:32.409Z,103805.30
2019-05-13T07:27:02.011Z,103808.02
2019-05-13T07:29:32.424Z,103801.20
2019-05-13T07:32:01.925Z,103805.72
2019-05-13T07:34:33.734Z,103797.38
2019-05-13T07:37:02.234Z,103794.05
2019-05-13T07:39:32.679Z,103792.52
2019-05-13T07:42:05.420Z,103779.95
2019-05-13T07:44:32.518Z,103781.06
2019-05-13T07:47:03.526Z,103785.42
2019-05-13T07:49:31.912Z,103786.17
2019-05-13T07:52:01.612Z,103781.00
2019-05-13T07:54:32.852Z,103784.53
2019-05-13T07:57:01.958Z,103783.20
2019-05-13T07:59:31.755Z,103784.61
2019-05-13T08:02:02.207Z,103783.81
2019-05-13T08:04:33.610Z,103782.12
2019-05-13T08:07:02.094Z,103780.00
2019-05-13T08:09:31.856Z,103779.84
2019-05-13T08:12:10.186Z,103782.17
2019-05-13T08:14:32.819Z,103790.08
2019-05-13T08:17:02.630Z,103780.95
2019-05-13T08:19:32.501Z,103781.30
2019-05-13T08:22:02.197Z,103778.50
2019-05-13T08:24:31.623Z,103787.86
2019-05-13T08:27:02.110Z,103786.67
2019-05-13T08:29:32.769Z,103791.08
2019-05-13T08:32:02.699Z,103787.34
2019-05-13T08:34:32.932Z,103784.66
2019-05-13T08:37:02.978Z,103780.84
2019-05-13T08:39:36.320Z,103788.50
2019-05-13T08:42:12.921Z,103782.62
2019-05-13T08:44:32.873Z,103782.52
2019-05-13T08:47:03.080Z,103780.43
2019-05-13T08:49:32.636Z,103782.30
2019-05-13T08:52:01.772Z,103779.81
2019-05-13T08:54:32.925Z,103778.44
2019-05-13T08:57:03.013Z,103780.86
2019-05-13T08:59:32.004Z,103784.41
2019-05-13T09:02:03.099Z,103774.59
2019-05-13T09:04:31.652Z,103773.36
2019-05-13T09:07:02.089Z,103768.94
2019-05-13T09:09:31.612Z,103762.80
2019-05-13T09:12:02.444Z,103772.80
2019-05-13T09:17:02.018Z,103778.79
2019-05-13T09:19:32.275Z,103772.53
2019-05-13T09:22:03.113Z,103769.56
2019-05-13T09:24:37.304Z,103768.57
2019-05-13T09:27:02.288Z,103772.13
2019-05-13T09:29:32.292Z,103769.65
2019-05-13T09:32:03.941Z,103769.13
2019-05-13T09:34:32.788Z,103775.36
2019-05-13T09:37:02.713Z,103771.22
2019-05-13T09:39:32.445Z,103769.73
2019-05-13T09:42:02.870Z,103769.77
2019-05-13T09:44:32.695Z,103771.13
2019-05-13T09:47:02.656Z,103770.88
2019-05-13T09:49:32.929Z,103761.13
2019-05-13T09:52:02.116Z,103765.58
2019-05-13T09:54:32.905Z,103772.22
2019-05-13T09:57:01.937Z,103758.86
2019-05-13T10:02:03.095Z,103763.22
2019-05-13T10:04:31.949Z,103760.67
2019-05-13T10:07:02.269Z,103753.66
2019-05-13T10:09:32.554Z,103755.08
2019-05-13T10:12:03.202Z,103757.82
2019-05-13T10:14:32.910Z,103753.81
2019-05-13T10:17:05.949Z,103742.25
2019-05-13T10:19:32.498Z,103742.39
2019-05-13T10:22:01.344Z,103743.59
2019-05-13T10:24:32.351Z,103740.34
2019-05-13T10:27:02.467Z,103744.05
2019-05-13T10:29:32.100Z,103738.11
2019-05-13T10:32:02.745Z,103744.01
2019-05-13T10:34:32.447Z,103746.23
2019-05-13T10:37:02.561Z,103735.22
2019-05-13T10:39:32.202Z,103737.03
2019-05-13T10:42:03.567Z,103729.30
2019-05-13T10:44:31.040Z,103728.29
2019-05-13T10:47:01.988Z,103720.52
2019-05-13T10:49:32.754Z,103717.98
2019-05-13T10:52:02.856Z,103717.77
2019-05-13T10:54:32.474Z,103719.92
2019-05-13T10:57:03.576Z,103713.28
2019-05-13T10:59:30.869Z,103710.53
2019-05-13T11:02:02.127Z,103713.05
2019-05-13T11:04:32.034Z,103698.16
2019-05-13T11:07:02.932Z,103703.89
2019-05-13T11:09:32.538Z,103699.88
2019-05-13T11:12:02.086Z,103694.97
2019-05-13T11:14:32.343Z,103676.22
2019-05-13T11:17:01.767Z,103682.02
2019-05-13T11:19:36.129Z,103688.33
2019-05-13T11:22:02.732Z,103681.57
2019-05-13T11:24:32.461Z,103678.50
2019-05-13T11:27:02.800Z,103671.45
2019-05-13T11:29:32.557Z,103676.38
2019-05-13T11:32:02.725Z,103671.45
2019-05-13T11:34:32.874Z,103680.30
2019-05-13T11:37:03.599Z,103678.09
2019-05-13T11:39:32.521Z,103665.77
2019-05-13T11:42:02.342Z,103664.99
2019-05-13T11:44:32.183Z,103669.12
2019-05-13T11:47:02.441Z,103655.43
2019-05-13T11:49:31.738Z,103662.95
2019-05-13T11:52:02.886Z,103658.66
2019-05-13T11:54:30.980Z,103653.36
2019-05-13T11:57:02.632Z,103652.05
2019-05-13T11:59:32.742Z,103656.28
2019-05-13T12:02:04.562Z,103645.97
2019-05-13T12:04:33.053Z,103642.34
2019-05-13T12:07:03.611Z,103645.61
2019-05-13T12:09:32.000Z,103636.32
2019-05-13T12:12:03.185Z,103627.11
2019-05-13T12:14:47.145Z,103630.11
2019-05-13T12:17:02.321Z,103622.77
2019-05-13T12:19:31.056Z,103622.73
2019-05-13T12:22:02.652Z,103623.75
2019-05-13T12:24:30.105Z,103625.25
2019-05-13T12:26:58.685Z,103614.45
2019-05-13T12:29:27.312Z,103620.36
2019-05-13T12:31:56.096Z,103614.67
2019-05-13T12:34:24.639Z,103606.78
2019-05-13T12:36:53.365Z,103603.73
2019-05-13T12:39:23.839Z,103614.23
2019-05-13T12:41:53.840Z,103605.31
2019-05-13T12:44:22.960Z,103604.03
2019-05-13T12:46:54.409Z,103603.58
2019-05-13T12:49:22.315Z,103598.89
2019-05-13T12:51:51.694Z,103594.92
2019-05-13T12:54:23.452Z,103588.87
2019-05-13T12:59:22.233Z,103583.47
2019-05-13T13:01:52.759Z,103584.94
2019-05-13T13:06:53.112Z,103590.66
2019-05-13T13:09:22.489Z,103583.14
2019-05-13T13:11:54.436Z,103587.78
2019-05-13T13:14:21.445Z,103573.33
2019-05-13T13:16:54.143Z,103583.84
2019-05-13T13:19:22.092Z,103568.13
2019-05-13T13:21:53.382Z,103570.31
2019-05-13T13:24:23.575Z,103566.83
2019-05-13T13:26:53.396Z,103554.84
2019-05-13T13:29:22.183Z,103566.12
2019-05-13T13:31:55.518Z,103558.45
2019-05-13T13:34:25.884Z,103557.84
2019-05-13T13:36:52.634Z,103558.37
2019-05-13T13:39:25.214Z,103549.39
2019-05-13T13:41:53.224Z,103549.95
2019-05-13T13:44:24.659Z,103546.14
2019-05-13T13:46:54.988Z,103542.46
2019-05-13T13:49:23.289Z,103539.21
2019-05-13T13:51:52.060Z,103536.91
2019-05-13T13:54:22.391Z,103538.06
2019-05-13T13:56:55.835Z,103538.46
2019-05-13T13:59:24.517Z,103539.42
2019-05-13T14:01:54.816Z,103531.95
2019-05-13T14:04:22.551Z,103527.67
2019-05-13T14:06:25.038Z,103768.37
2019-05-13T14:06:35.511Z,103583.88
2019-05-13T14:07:02.788Z,103761.45
2019-05-13T14:09:22.481Z,103530.20
2019-05-13T14:11:51.717Z,103530.66
2019-05-13T14:14:21.540Z,103521.91
2019-05-13T14:16:51.819Z,103516.20
2019-05-13T14:19:21.975Z,103503.61
2019-05-13T14:21:52.636Z,103509.65
2019-05-13T14:24:21.876Z,103510.44
2019-05-13T14:26:52.329Z,103508.37
2019-05-13T14:29:36.256Z,103510.55
2019-05-13T14:31:52.295Z,103501.14
2019-05-13T14:34:21.817Z,103513.45
2019-05-13T14:36:51.837Z,103499.88
2019-05-13T14:39:22.217Z,103495.84
2019-05-13T14:41:51.983Z,103497.27
2019-05-13T14:44:21.946Z,103500.48
2019-05-13T14:46:52.381Z,103490.26
2019-05-13T14:49:22.585Z,103489.86
2019-05-13T14:51:55.704Z,103485.84
2019-05-13T14:54:22.279Z,103475.24
2019-05-13T14:56:52.045Z,103485.61
2019-05-13T14:59:22.098Z,103476.63
2019-05-13T15:01:51.899Z,103475.58
2019-05-13T15:04:22.278Z,103474.87
2019-05-13T15:06:51.149Z,103478.95
2019-05-13T15:09:20.143Z,103482.88
2019-05-13T15:11:52.564Z,103477.30
2019-05-13T15:14:21.959Z,103473.19
2019-05-13T15:17:02.293Z,103480.34
2019-05-13T15:19:22.306Z,103483.80
2019-05-13T15:21:52.110Z,103471.91
2019-05-13T15:24:21.353Z,103469.23
2019-05-13T15:26:51.710Z,103467.97
2019-05-13T15:29:22.284Z,103472.95
2019-05-13T15:31:51.431Z,103459.17
2019-05-13T15:34:20.103Z,103458.01
2019-05-13T15:36:50.768Z,103461.66
2019-05-13T15:39:19.156Z,103456.25
2019-05-13T15:41:47.777Z,103449.08
2019-05-13T15:44:16.439Z,103444.16
2019-05-13T15:46:45.019Z,103446.33
2019-05-13T15:49:13.525Z,103446.00
2019-05-13T15:51:42.462Z,103453.03
2019-05-13T15:54:15.311Z,103445.00
2019-05-13T15:56:41.355Z,103440.53
2019-05-13T15:59:12.373Z,103440.28
2019-05-13T16:01:41.496Z,103431.61
2019-05-13T16:04:12.810Z,103436.36
2019-05-13T16:06:41.800Z,103441.69
2019-05-13T16:09:11.681Z,103436.44
2019-05-13T16:11:41.471Z,103428.67
2019-05-13T16:14:11.725Z,103436.04
2019-05-13T16:16:41.729Z,103434.22
2019-05-13T16:19:10.514Z,103437.91
2019-05-13T16:21:41.351Z,103440.91
2019-05-13T16:24:11.739Z,103433.20
2019-05-13T16:26:42.376Z,103429.95
2019-05-13T16:29:12.537Z,103442.69
2019-05-13T16:31:41.609Z,103432.44
2019-05-13T16:34:11.139Z,103428.83
2019-05-13T16:36:42.847Z,103428.38
2019-05-13T16:39:12.373Z,103425.58
2019-05-13T16:41:42.586Z,103436.61
2019-05-13T16:44:12.105Z,103434.67
2019-05-13T16:46:42.398Z,103429.16
2019-05-13T16:49:12.114Z,103427.66
2019-05-13T16:51:42.584Z,103422.77
2019-05-13T16:54:11.381Z,103430.66
2019-05-13T16:56:42.112Z,103420.80
2019-05-13T16:59:10.329Z,103415.05
2019-05-13T17:01:38.927Z,103414.20
2019-05-13T17:04:07.535Z,103418.95
2019-05-13T17:06:36.125Z,103432.45
2019-05-13T17:09:06.405Z,103420.19
2019-05-13T17:11:35.050Z,103414.16
2019-05-13T17:14:05.794Z,103410.22
2019-05-13T17:16:34.231Z,103410.91
2019-05-13T17:19:02.842Z,103403.89
2019-05-13T17:21:31.756Z,103400.97
2019-05-13T17:24:01.573Z,103409.02
2019-05-13T17:26:32.524Z,103414.34
2019-05-13T17:29:01.414Z,103418.25
2019-05-13T17:31:32.401Z,103407.16
2019-05-13T17:34:01.502Z,103405.29
2019-05-13T17:36:32.334Z,103407.84
2019-05-13T17:39:01.805Z,103402.91
2019-05-13T17:41:32.099Z,103404.97
2019-05-13T17:44:02.396Z,103408.12
2019-05-13T17:46:32.661Z,103395.69
2019-05-13T17:49:01.319Z,103402.73
2019-05-13T17:51:29.885Z,103407.84
2019-05-13T17:53:58.484Z,103398.55
2019-05-13T17:56:27.084Z,103399.03
2019-05-13T17:58:55.667Z,103405.06
2019-05-13T18:01:24.523Z,103403.80
2019-05-13T18:03:53.100Z,103405.30
2019-05-13T18:06:21.723Z,103407.59
2019-05-13T18:08:51.741Z,103401.28
2019-05-13T18:11:21.909Z,103408.00
2019-05-13T18:13:51.876Z,103414.17
2019-05-13T18:16:21.775Z,103397.91
2019-05-13T18:18:52.106Z,103403.70
2019-05-13T18:21:20.972Z,103406.37
2019-05-13T18:23:51.944Z,103410.48
2019-05-13T18:26:21.600Z,103407.79
2019-05-13T18:28:51.515Z,103404.13
2019-05-13T18:31:20.231Z,103400.38
2019-05-13T18:33:50.972Z,103395.09
2019-05-13T18:36:19.218Z,103399.08
2019-05-13T18:38:47.806Z,103399.80
2019-05-13T18:41:16.421Z,103397.97
2019-05-13T18:43:45.039Z,103398.31
2019-05-13T18:46:13.561Z,103405.99
2019-05-13T18:48:57.365Z,103404.55
2019-05-13T18:51:12.408Z,103407.13
2019-05-13T18:53:41.539Z,103402.51
2019-05-13T18:56:12.401Z,103401.52
2019-05-13T18:58:40.596Z,103409.22
2019-05-13T19:01:11.234Z,103405.48
2019-05-13T19:03:41.410Z,103407.19
2019-05-13T19:06:11.628Z,103408.93
2019-05-13T19:08:41.416Z,103418.62
2019-05-13T19:11:11.800Z,103419.53
2019-05-13T19:13:41.718Z,103417.41
2019-05-13T19:16:11.828Z,103421.83
2019-05-13T19:18:42.283Z,103421.83
2019-05-13T19:21:10.773Z,103427.97
2019-05-13T19:23:39.265Z,103422.54
2019-05-13T19:26:07.847Z,103428.55
2019-05-13T19:28:36.436Z,103436.34
2019-05-13T19:31:05.035Z,103436.34
2019-05-13T19:33:33.598Z,103437.47
2019-05-13T19:36:02.264Z,103443.55
2019-05-13T19:38:31.966Z,103444.63
2019-05-13T19:41:01.884Z,103452.81
2019-05-13T19:43:31.419Z,103452.05
2019-05-13T19:46:01.538Z,103447.95
2019-05-13T19:48:32.646Z,103444.66
2019-05-13T19:51:01.529Z,103443.56
2019-05-13T19:53:31.883Z,103444.41
2019-05-13T19:56:01.433Z,103445.52
2019-05-13T19:58:32.237Z,103445.80
2019-05-13T20:01:00.388Z,103442.27
2019-05-13T20:03:31.492Z,103446.14
2019-05-13T20:05:59.299Z,103446.98
2019-05-13T20:08:27.908Z,103447.49
2019-05-13T20:10:56.504Z,103445.06
2019-05-13T20:13:25.055Z,103447.23
2019-05-13T20:15:53.582Z,103449.39
2019-05-13T20:18:22.905Z,103448.58
2019-05-13T20:20:52.408Z,103452.68
2019-05-13T20:23:21.371Z,103449.94
2019-05-13T20:25:52.266Z,103455.41
2019-05-13T20:28:21.106Z,103454.06
2019-05-13T20:30:51.143Z,103456.77
2019-05-13T20:33:22.020Z,103456.77
2019-05-13T20:35:50.093Z,103454.04
2019-05-13T20:38:18.695Z,103458.42
2019-05-13T20:40:47.351Z,103459.79
2019-05-13T20:43:16.031Z,103461.16
2019-05-13T20:45:44.649Z,103468.80
2019-05-13T20:48:13.227Z,103463.60
2019-05-13T20:50:41.861Z,103467.97
2019-05-13T20:53:11.507Z,103469.06
2019-05-13T20:55:41.787Z,103479.94
2019-05-13T20:58:12.799Z,103479.94
2019-05-13T21:00:42.227Z,103476.11
2019-05-13T21:03:11.742Z,103484.00
2019-05-13T21:05:41.567Z,103475.11
2019-05-13T21:08:10.346Z,103477.16
2019-05-13T21:10:38.968Z,103480.89
2019-05-13T21:13:07.587Z,103484.94
2019-05-13T21:15:36.172Z,103479.52
2019-05-13T21:18:04.758Z,103483.25
2019-05-13T21:20:33.343Z,103482.97
2019-05-13T21:23:02.367Z,103480.70
2019-05-13T21:25:31.227Z,103485.27
2019-05-13T21:28:01.951Z,103484.05
2019-05-13T21:30:30.069Z,103485.09
2019-05-13T21:32:58.699Z,103490.53
2019-05-13T21:35:27.271Z,103490.61
2019-05-13T21:37:55.954Z,103488.42
2019-05-13T21:40:24.574Z,103486.40
2019-05-13T21:42:53.211Z,103499.18
2019-05-13T21:45:21.852Z,103492.66
2019-05-13T21:47:50.438Z,103495.70
2019-05-13T21:50:31.124Z,103494.02
2019-05-13T21:52:51.443Z,103497.23
2019-05-13T21:55:21.689Z,103496.06
2019-05-13T21:57:50.100Z,103494.89
2019-05-13T22:00:23.766Z,103493.87
2019-05-13T22:02:52.484Z,103492.33
2019-05-13T22:05:22.188Z,103493.61
2019-05-13T22:07:50.826Z,103488.02
2019-05-13T22:10:21.513Z,103494.13
2019-05-13T22:12:51.926Z,103486.58
2019-05-13T22:15:21.837Z,103484.41
2019-05-13T22:17:51.271Z,103492.06
2019-05-13T22:20:21.349Z,103488.41
2019-05-13T22:22:51.965Z,103486.98
2019-05-13T22:25:20.222Z,103484.79
2019-05-13T22:27:48.837Z,103480.55
2019-05-13T22:30:17.819Z,103484.62
2019-05-13T22:32:46.277Z,103472.94
2019-05-13T22:35:14.917Z,103477.29
2019-05-13T22:37:43.494Z,103477.64
2019-05-13T22:40:12.110Z,103472.59
2019-05-13T22:42:41.570Z,103476.45
2019-05-13T22:45:11.753Z,103478.09
2019-05-13T22:47:41.768Z,103477.53
2019-05-13T22:50:11.589Z,103473.56
2019-05-13T22:52:41.961Z,103475.48
2019-05-13T22:55:11.748Z,103475.46
2019-05-13T22:57:42.029Z,103478.61
2019-05-13T23:00:11.863Z,103473.94
2019-05-13T23:02:42.075Z,103477.09
2019-05-13T23:05:11.398Z,103483.17
2019-05-13T23:07:40.009Z,103481.22
2019-05-13T23:10:08.945Z,103478.59
2019-05-13T23:12:37.379Z,103481.39
2019-05-13T23:15:09.059Z,103474.77
2019-05-13T23:17:37.674Z,103474.77
2019-05-13T23:20:06.933Z,103472.16
2019-05-13T23:22:35.488Z,103475.06
2019-05-13T23:25:05.781Z,103477.52
2019-05-13T23:27:34.273Z,103480.67
2019-05-13T23:30:03.089Z,103476.25
2019-05-13T23:32:32.094Z,103472.86
2019-05-13T23:35:01.981Z,103472.75
2019-05-13T23:37:31.051Z,103471.80
2019-05-13T23:40:01.437Z,103473.83
2019-05-13T23:42:31.966Z,103475.34
2019-05-13T23:45:00.324Z,103468.25
2019-05-13T23:47:31.095Z,103467.71
2019-05-13T23:50:01.721Z,103465.19
2019-05-13T23:52:31.206Z,103475.61
2019-05-13T23:55:02.133Z,103472.22
2019-05-13T23:57:31.387Z,103479.70
2019-05-13T23:59:59.899Z,103474.27
